sensor_id;sensor_type;location;lat;lon;timestamp;P1;durP1;ratioP1;P2;durP2;ratioP2
49730;SDS011;35622;52.008;5.426;2024-02-16T00:02:17;6.43;;;4.28;;
49730;SDS011;35622;52.008;5.426;2024-02-16T00:04:43;6.78;;;4.68;;
49730;SDS011;35622;52.008;5.426;2024-02-16T00:07:09;5.65;;;4.25;;
49730;SDS011;35622;52.008;5.426;2024-02-16T00:09:34;8.02;;;4.57;;
49730;SDS011;35622;52.008;5.426;2024-02-16T00:12:00;8.00;;;4.82;;
49730;SDS011;35622;52.008;5.426;2024-02-16T00:14:26;8.73;;;4.63;;
49730;SDS011;35622;52.008;5.426;2024-02-16T00:16:52;8.10;;;5.15;;
49730;SDS011;35622;52.008;5.426;2024-02-16T00:19:17;8.40;;;4.53;;
49730;SDS011;35622;52.008;5.426;2024-02-16T00:21:43;7.43;;;4.50;;
49730;SDS011;35622;52.008;5.426;2024-02-16T00:24:09;9.73;;;4.93;;
49730;SDS011;35622;52.008;5.426;2024-02-16T00:26:35;9.45;;;4.95;;
49730;SDS011;35622;52.008;5.426;2024-02-16T00:29:01;7.72;;;4.90;;
49730;SDS011;35622;52.008;5.426;2024-02-16T00:31:26;8.02;;;4.32;;
49730;SDS011;35622;52.008;5.426;2024-02-16T00:33:52;6.40;;;4.75;;
49730;SDS011;35622;52.008;5.426;2024-02-16T00:36:17;9.93;;;5.28;;
49730;SDS011;35622;52.008;5.426;2024-02-16T00:38:43;9.70;;;5.43;;
49730;SDS011;35622;52.008;5.426;2024-02-16T00:41:16;12.30;;;5.30;;
49730;SDS011;35622;52.008;5.426;2024-02-16T00:43:43;8.43;;;5.50;;
49730;SDS011;35622;52.008;5.426;2024-02-16T00:46:09;10.63;;;5.03;;
49730;SDS011;35622;52.008;5.426;2024-02-16T00:48:36;11.23;;;4.95;;
49730;SDS011;35622;52.008;5.426;2024-02-16T00:51:01;8.95;;;4.75;;
49730;SDS011;35622;52.008;5.426;2024-02-16T00:53:27;8.13;;;5.10;;
49730;SDS011;35622;52.008;5.426;2024-02-16T00:55:52;8.20;;;4.72;;
49730;SDS011;35622;52.008;5.426;2024-02-16T00:58:18;7.88;;;5.15;;
49730;SDS011;35622;52.008;5.426;2024-02-16T01:00:44;10.45;;;5.30;;
49730;SDS011;35622;52.008;5.426;2024-02-16T01:03:10;10.25;;;5.60;;
49730;SDS011;35622;52.008;5.426;2024-02-16T01:05:37;8.55;;;5.03;;
49730;SDS011;35622;52.008;5.426;2024-02-16T01:08:03;8.15;;;5.30;;
49730;SDS011;35622;52.008;5.426;2024-02-16T01:10:29;9.80;;;5.63;;
49730;SDS011;35622;52.008;5.426;2024-02-16T01:12:55;8.70;;;5.22;;
49730;SDS011;35622;52.008;5.426;2024-02-16T01:15:21;11.20;;;5.40;;
49730;SDS011;35622;52.008;5.426;2024-02-16T01:17:46;10.43;;;5.38;;
49730;SDS011;35622;52.008;5.426;2024-02-16T01:20:12;10.18;;;5.32;;
49730;SDS011;35622;52.008;5.426;2024-02-16T01:22:38;8.80;;;5.55;;
49730;SDS011;35622;52.008;5.426;2024-02-16T01:25:06;10.82;;;5.88;;
49730;SDS011;35622;52.008;5.426;2024-02-16T01:27:33;7.40;;;4.90;;
49730;SDS011;35622;52.008;5.426;2024-02-16T01:29:59;7.03;;;5.00;;
49730;SDS011;35622;52.008;5.426;2024-02-16T01:32:25;9.65;;;4.85;;
49730;SDS011;35622;52.008;5.426;2024-02-16T01:34:51;7.35;;;5.40;;
49730;SDS011;35622;52.008;5.426;2024-02-16T01:37:17;8.68;;;5.22;;
49730;SDS011;35622;52.008;5.426;2024-02-16T01:39:42;8.77;;;5.40;;
49730;SDS011;35622;52.008;5.426;2024-02-16T01:42:08;11.70;;;4.75;;
49730;SDS011;35622;52.008;5.426;2024-02-16T01:44:34;8.50;;;5.10;;
49730;SDS011;35622;52.008;5.426;2024-02-16T01:46:59;6.80;;;5.15;;
49730;SDS011;35622;52.008;5.426;2024-02-16T01:49:26;8.60;;;5.72;;
49730;SDS011;35622;52.008;5.426;2024-02-16T01:51:53;7.32;;;5.38;;
49730;SDS011;35622;52.008;5.426;2024-02-16T01:54:18;7.35;;;5.40;;
49730;SDS011;35622;52.008;5.426;2024-02-16T01:56:44;8.00;;;5.47;;
49730;SDS011;35622;52.008;5.426;2024-02-16T01:59:10;9.70;;;5.57;;
49730;SDS011;35622;52.008;5.426;2024-02-16T02:01:36;7.47;;;5.78;;
49730;SDS011;35622;52.008;5.426;2024-02-16T02:04:01;7.70;;;5.20;;
49730;SDS011;35622;52.008;5.426;2024-02-16T02:06:27;8.00;;;5.20;;
49730;SDS011;35622;52.008;5.426;2024-02-16T02:08:53;10.00;;;5.60;;
49730;SDS011;35622;52.008;5.426;2024-02-16T02:11:18;8.43;;;5.55;;
49730;SDS011;35622;52.008;5.426;2024-02-16T02:13:44;8.35;;;5.45;;
49730;SDS011;35622;52.008;5.426;2024-02-16T02:16:10;10.20;;;5.93;;
49730;SDS011;35622;52.008;5.426;2024-02-16T02:18:36;9.85;;;5.90;;
49730;SDS011;35622;52.008;5.426;2024-02-16T02:21:01;9.82;;;6.32;;
49730;SDS011;35622;52.008;5.426;2024-02-16T02:23:27;8.95;;;5.80;;
49730;SDS011;35622;52.008;5.426;2024-02-16T02:25:53;10.50;;;6.38;;
49730;SDS011;35622;52.008;5.426;2024-02-16T02:28:19;7.18;;;5.53;;
49730;SDS011;35622;52.008;5.426;2024-02-16T02:30:45;9.10;;;5.85;;
49730;SDS011;35622;52.008;5.426;2024-02-16T02:33:11;8.75;;;6.13;;
49730;SDS011;35622;52.008;5.426;2024-02-16T02:35:38;9.95;;;6.22;;
49730;SDS011;35622;52.008;5.426;2024-02-16T02:38:04;8.13;;;5.70;;
49730;SDS011;35622;52.008;5.426;2024-02-16T02:40:30;8.77;;;5.78;;
49730;SDS011;35622;52.008;5.426;2024-02-16T02:42:57;12.00;;;5.93;;
49730;SDS011;35622;52.008;5.426;2024-02-16T02:45:23;9.98;;;5.90;;
49730;SDS011;35622;52.008;5.426;2024-02-16T02:47:49;13.02;;;5.50;;
49730;SDS011;35622;52.008;5.426;2024-02-16T02:50:15;9.10;;;5.72;;
49730;SDS011;35622;52.008;5.426;2024-02-16T02:52:41;12.15;;;5.97;;
49730;SDS011;35622;52.008;5.426;2024-02-16T02:55:07;10.70;;;5.90;;
49730;SDS011;35622;52.008;5.426;2024-02-16T02:57:32;10.45;;;5.78;;
49730;SDS011;35622;52.008;5.426;2024-02-16T03:00:05;10.35;;;5.57;;
49730;SDS011;35622;52.008;5.426;2024-02-16T03:02:35;9.52;;;5.82;;
49730;SDS011;35622;52.008;5.426;2024-02-16T03:05:02;10.50;;;5.90;;
49730;SDS011;35622;52.008;5.426;2024-02-16T03:07:28;8.48;;;5.70;;
49730;SDS011;35622;52.008;5.426;2024-02-16T03:09:54;9.95;;;5.82;;
49730;SDS011;35622;52.008;5.426;2024-02-16T03:12:19;9.38;;;6.03;;
49730;SDS011;35622;52.008;5.426;2024-02-16T03:14:45;8.15;;;5.55;;
49730;SDS011;35622;52.008;5.426;2024-02-16T03:17:11;10.13;;;6.00;;
49730;SDS011;35622;52.008;5.426;2024-02-16T03:19:36;8.77;;;5.90;;
49730;SDS011;35622;52.008;5.426;2024-02-16T03:22:02;8.75;;;6.20;;
49730;SDS011;35622;52.008;5.426;2024-02-16T03:24:27;6.75;;;5.75;;
49730;SDS011;35622;52.008;5.426;2024-02-16T03:26:53;7.65;;;5.80;;
49730;SDS011;35622;52.008;5.426;2024-02-16T03:29:18;10.55;;;5.68;;
49730;SDS011;35622;52.008;5.426;2024-02-16T03:31:44;8.02;;;5.63;;
49730;SDS011;35622;52.008;5.426;2024-02-16T03:34:10;8.70;;;5.95;;
49730;SDS011;35622;52.008;5.426;2024-02-16T03:36:35;9.38;;;5.93;;
49730;SDS011;35622;52.008;5.426;2024-02-16T03:39:01;11.05;;;6.10;;
49730;SDS011;35622;52.008;5.426;2024-02-16T03:41:27;8.35;;;5.55;;
49730;SDS011;35622;52.008;5.426;2024-02-16T03:43:53;7.10;;;5.47;;
49730;SDS011;35622;52.008;5.426;2024-02-16T03:46:19;10.70;;;6.05;;
49730;SDS011;35622;52.008;5.426;2024-02-16T03:48:45;8.98;;;6.07;;
49730;SDS011;35622;52.008;5.426;2024-02-16T03:51:10;9.02;;;5.68;;
49730;SDS011;35622;52.008;5.426;2024-02-16T03:53:36;7.82;;;5.35;;
49730;SDS011;35622;52.008;5.426;2024-02-16T03:56:02;11.82;;;5.88;;
49730;SDS011;35622;52.008;5.426;2024-02-16T03:58:28;10.52;;;6.28;;
49730;SDS011;35622;52.008;5.426;2024-02-16T04:00:53;9.98;;;6.18;;
49730;SDS011;35622;52.008;5.426;2024-02-16T04:03:19;9.52;;;6.25;;
49730;SDS011;35622;52.008;5.426;2024-02-16T04:05:44;11.40;;;6.03;;
49730;SDS011;35622;52.008;5.426;2024-02-16T04:08:10;7.70;;;6.18;;
49730;SDS011;35622;52.008;5.426;2024-02-16T04:10:36;14.10;;;5.85;;
49730;SDS011;35622;52.008;5.426;2024-02-16T04:13:02;8.18;;;5.72;;
49730;SDS011;35622;52.008;5.426;2024-02-16T04:15:28;8.30;;;5.78;;
49730;SDS011;35622;52.008;5.426;2024-02-16T04:17:54;8.88;;;5.97;;
49730;SDS011;35622;52.008;5.426;2024-02-16T04:20:19;8.43;;;5.43;;
49730;SDS011;35622;52.008;5.426;2024-02-16T04:22:45;13.75;;;6.18;;
49730;SDS011;35622;52.008;5.426;2024-02-16T04:25:11;10.18;;;5.82;;
49730;SDS011;35622;52.008;5.426;2024-02-16T04:27:37;8.32;;;6.05;;
49730;SDS011;35622;52.008;5.426;2024-02-16T04:30:03;8.38;;;5.90;;
49730;SDS011;35622;52.008;5.426;2024-02-16T04:32:30;7.60;;;5.20;;
49730;SDS011;35622;52.008;5.426;2024-02-16T04:34:56;8.68;;;5.30;;
49730;SDS011;35622;52.008;5.426;2024-02-16T04:37:22;9.23;;;6.05;;
49730;SDS011;35622;52.008;5.426;2024-02-16T04:39:48;9.48;;;5.85;;
49730;SDS011;35622;52.008;5.426;2024-02-16T04:42:14;8.35;;;5.95;;
49730;SDS011;35622;52.008;5.426;2024-02-16T04:44:41;9.80;;;5.63;;
49730;SDS011;35622;52.008;5.426;2024-02-16T04:47:06;8.02;;;5.72;;
49730;SDS011;35622;52.008;5.426;2024-02-16T04:49:32;8.07;;;5.85;;
49730;SDS011;35622;52.008;5.426;2024-02-16T04:51:57;7.82;;;5.38;;
49730;SDS011;35622;52.008;5.426;2024-02-16T04:54:23;8.07;;;5.47;;
49730;SDS011;35622;52.008;5.426;2024-02-16T04:56:49;6.97;;;5.30;;
49730;SDS011;35622;52.008;5.426;2024-02-16T04:59:16;8.82;;;5.20;;
49730;SDS011;35622;52.008;5.426;2024-02-16T05:01:45;9.82;;;5.97;;
49730;SDS011;35622;52.008;5.426;2024-02-16T05:04:11;10.32;;;5.47;;
49730;SDS011;35622;52.008;5.426;2024-02-16T05:06:44;8.95;;;5.97;;
49730;SDS011;35622;52.008;5.426;2024-02-16T05:09:12;7.88;;;5.65;;
49730;SDS011;35622;52.008;5.426;2024-02-16T05:11:41;10.35;;;5.80;;
49730;SDS011;35622;52.008;5.426;2024-02-16T05:14:07;9.95;;;5.60;;
49730;SDS011;35622;52.008;5.426;2024-02-16T05:16:33;9.45;;;6.07;;
49730;SDS011;35622;52.008;5.426;2024-02-16T05:18:58;8.15;;;5.68;;
49730;SDS011;35622;52.008;5.426;2024-02-16T05:21:24;9.75;;;5.68;;
49730;SDS011;35622;52.008;5.426;2024-02-16T05:23:50;9.82;;;5.80;;
49730;SDS011;35622;52.008;5.426;2024-02-16T05:26:15;7.60;;;5.75;;
49730;SDS011;35622;52.008;5.426;2024-02-16T05:28:41;10.85;;;6.00;;
49730;SDS011;35622;52.008;5.426;2024-02-16T05:31:13;9.95;;;5.97;;
49730;SDS011;35622;52.008;5.426;2024-02-16T05:33:44;11.40;;;5.82;;
49730;SDS011;35622;52.008;5.426;2024-02-16T05:36:11;9.57;;;5.97;;
49730;SDS011;35622;52.008;5.426;2024-02-16T05:38:37;8.95;;;6.03;;
49730;SDS011;35622;52.008;5.426;2024-02-16T05:41:09;8.20;;;5.95;;
49730;SDS011;35622;52.008;5.426;2024-02-16T05:43:36;10.07;;;5.78;;
49730;SDS011;35622;52.008;5.426;2024-02-16T05:46:03;8.10;;;5.82;;
49730;SDS011;35622;52.008;5.426;2024-02-16T05:48:31;10.00;;;6.38;;
49730;SDS011;35622;52.008;5.426;2024-02-16T05:51:04;7.95;;;5.95;;
49730;SDS011;35622;52.008;5.426;2024-02-16T05:53:31;9.40;;;6.03;;
49730;SDS011;35622;52.008;5.426;2024-02-16T05:55:57;7.97;;;6.10;;
49730;SDS011;35622;52.008;5.426;2024-02-16T05:58:23;8.88;;;5.93;;
49730;SDS011;35622;52.008;5.426;2024-02-16T06:00:49;9.77;;;6.35;;
49730;SDS011;35622;52.008;5.426;2024-02-16T06:03:14;10.65;;;6.65;;
49730;SDS011;35622;52.008;5.426;2024-02-16T06:05:40;11.80;;;6.13;;
49730;SDS011;35622;52.008;5.426;2024-02-16T06:08:09;7.95;;;5.43;;
49730;SDS011;35622;52.008;5.426;2024-02-16T06:10:35;9.00;;;5.85;;
49730;SDS011;35622;52.008;5.426;2024-02-16T06:13:01;8.05;;;6.28;;
49730;SDS011;35622;52.008;5.426;2024-02-16T06:15:26;9.65;;;6.35;;
49730;SDS011;35622;52.008;5.426;2024-02-16T06:17:52;8.45;;;5.50;;
49730;SDS011;35622;52.008;5.426;2024-02-16T06:20:18;6.78;;;5.53;;
49730;SDS011;35622;52.008;5.426;2024-02-16T06:22:43;8.65;;;6.63;;
49730;SDS011;35622;52.008;5.426;2024-02-16T06:25:09;8.13;;;5.80;;
49730;SDS011;35622;52.008;5.426;2024-02-16T06:27:35;9.32;;;5.85;;
49730;SDS011;35622;52.008;5.426;2024-02-16T06:30:02;9.38;;;6.07;;
49730;SDS011;35622;52.008;5.426;2024-02-16T06:32:29;9.90;;;5.82;;
49730;SDS011;35622;52.008;5.426;2024-02-16T06:34:56;8.43;;;6.57;;
49730;SDS011;35622;52.008;5.426;2024-02-16T06:37:22;9.02;;;6.00;;
49730;SDS011;35622;52.008;5.426;2024-02-16T06:39:47;8.57;;;5.55;;
49730;SDS011;35622;52.008;5.426;2024-02-16T06:42:13;8.75;;;5.53;;
49730;SDS011;35622;52.008;5.426;2024-02-16T06:44:39;10.57;;;5.93;;
49730;SDS011;35622;52.008;5.426;2024-02-16T06:47:05;9.48;;;5.97;;
49730;SDS011;35622;52.008;5.426;2024-02-16T06:49:31;10.52;;;5.88;;
49730;SDS011;35622;52.008;5.426;2024-02-16T06:51:56;8.20;;;5.25;;
49730;SDS011;35622;52.008;5.426;2024-02-16T06:54:22;9.05;;;6.18;;
49730;SDS011;35622;52.008;5.426;2024-02-16T06:56:49;9.75;;;5.55;;
49730;SDS011;35622;52.008;5.426;2024-02-16T06:59:16;10.77;;;5.65;;
49730;SDS011;35622;52.008;5.426;2024-02-16T07:01:42;8.48;;;5.13;;
49730;SDS011;35622;52.008;5.426;2024-02-16T07:04:08;7.53;;;5.45;;
49730;SDS011;35622;52.008;5.426;2024-02-16T07:06:34;7.95;;;5.40;;
49730;SDS011;35622;52.008;5.426;2024-02-16T07:09:00;7.88;;;5.72;;
49730;SDS011;35622;52.008;5.426;2024-02-16T07:11:25;6.97;;;5.22;;
49730;SDS011;35622;52.008;5.426;2024-02-16T07:13:51;9.32;;;5.30;;
49730;SDS011;35622;52.008;5.426;2024-02-16T07:16:17;9.00;;;4.97;;
49730;SDS011;35622;52.008;5.426;2024-02-16T07:18:43;8.68;;;5.40;;
49730;SDS011;35622;52.008;5.426;2024-02-16T07:21:09;8.20;;;5.30;;
49730;SDS011;35622;52.008;5.426;2024-02-16T07:23:35;9.45;;;5.32;;
49730;SDS011;35622;52.008;5.426;2024-02-16T07:26:00;7.30;;;5.00;;
49730;SDS011;35622;52.008;5.426;2024-02-16T07:28:26;6.88;;;5.13;;
49730;SDS011;35622;52.008;5.426;2024-02-16T07:30:52;7.60;;;4.88;;
49730;SDS011;35622;52.008;5.426;2024-02-16T07:33:18;11.15;;;5.43;;
49730;SDS011;35622;52.008;5.426;2024-02-16T07:35:44;8.93;;;5.00;;
49730;SDS011;35622;52.008;5.426;2024-02-16T07:38:10;6.53;;;5.10;;
49730;SDS011;35622;52.008;5.426;2024-02-16T07:40:36;7.15;;;4.85;;
49730;SDS011;35622;52.008;5.426;2024-02-16T07:43:01;7.78;;;5.13;;
49730;SDS011;35622;52.008;5.426;2024-02-16T07:45:28;8.13;;;4.80;;
49730;SDS011;35622;52.008;5.426;2024-02-16T07:47:54;7.40;;;5.03;;
49730;SDS011;35622;52.008;5.426;2024-02-16T07:50:20;10.38;;;5.40;;
49730;SDS011;35622;52.008;5.426;2024-02-16T07:52:46;7.13;;;4.68;;
49730;SDS011;35622;52.008;5.426;2024-02-16T07:55:12;7.05;;;4.78;;
49730;SDS011;35622;52.008;5.426;2024-02-16T07:57:38;7.88;;;5.43;;
49730;SDS011;35622;52.008;5.426;2024-02-16T08:00:04;7.32;;;5.13;;
49730;SDS011;35622;52.008;5.426;2024-02-16T08:02:30;6.40;;;4.85;;
49730;SDS011;35622;52.008;5.426;2024-02-16T08:04:56;7.22;;;5.10;;
49730;SDS011;35622;52.008;5.426;2024-02-16T08:07:23;9.70;;;5.55;;
49730;SDS011;35622;52.008;5.426;2024-02-16T08:09:49;8.73;;;5.57;;
49730;SDS011;35622;52.008;5.426;2024-02-16T08:12:14;8.13;;;5.47;;
49730;SDS011;35622;52.008;5.426;2024-02-16T08:14:40;9.43;;;6.00;;
49730;SDS011;35622;52.008;5.426;2024-02-16T08:17:07;9.88;;;6.15;;
49730;SDS011;35622;52.008;5.426;2024-02-16T08:19:33;8.00;;;5.90;;
49730;SDS011;35622;52.008;5.426;2024-02-16T08:22:02;10.13;;;6.63;;
49730;SDS011;35622;52.008;5.426;2024-02-16T08:24:32;11.27;;;6.05;;
49730;SDS011;35622;52.008;5.426;2024-02-16T08:26:58;9.50;;;5.80;;
49730;SDS011;35622;52.008;5.426;2024-02-16T08:29:24;9.95;;;5.75;;
49730;SDS011;35622;52.008;5.426;2024-02-16T08:31:50;14.95;;;6.80;;
49730;SDS011;35622;52.008;5.426;2024-02-16T08:34:16;11.18;;;6.70;;
49730;SDS011;35622;52.008;5.426;2024-02-16T08:36:46;12.70;;;6.88;;
49730;SDS011;35622;52.008;5.426;2024-02-16T08:39:12;8.85;;;5.68;;
49730;SDS011;35622;52.008;5.426;2024-02-16T08:41:38;11.73;;;6.32;;
49730;SDS011;35622;52.008;5.426;2024-02-16T08:44:04;9.45;;;5.18;;
49730;SDS011;35622;52.008;5.426;2024-02-16T08:46:32;10.90;;;6.05;;
49730;SDS011;35622;52.008;5.426;2024-02-16T08:48:58;10.48;;;6.03;;
49730;SDS011;35622;52.008;5.426;2024-02-16T08:51:25;11.98;;;5.72;;
49730;SDS011;35622;52.008;5.426;2024-02-16T08:53:50;7.60;;;5.03;;
49730;SDS011;35622;52.008;5.426;2024-02-16T08:56:16;9.15;;;4.80;;
49730;SDS011;35622;52.008;5.426;2024-02-16T08:58:41;8.25;;;5.47;;
49730;SDS011;35622;52.008;5.426;2024-02-16T09:01:07;8.15;;;5.30;;
49730;SDS011;35622;52.008;5.426;2024-02-16T09:03:32;7.75;;;5.50;;
49730;SDS011;35622;52.008;5.426;2024-02-16T09:06:02;9.25;;;5.35;;
49730;SDS011;35622;52.008;5.426;2024-02-16T09:08:28;8.65;;;5.50;;
49730;SDS011;35622;52.008;5.426;2024-02-16T09:10:58;7.50;;;5.22;;
49730;SDS011;35622;52.008;5.426;2024-02-16T09:13:24;8.48;;;5.32;;
49730;SDS011;35622;52.008;5.426;2024-02-16T09:15:50;9.80;;;5.68;;
49730;SDS011;35622;52.008;5.426;2024-02-16T09:18:16;9.27;;;5.50;;
49730;SDS011;35622;52.008;5.426;2024-02-16T09:20:42;10.48;;;6.13;;
49730;SDS011;35622;52.008;5.426;2024-02-16T09:23:08;8.63;;;5.72;;
49730;SDS011;35622;52.008;5.426;2024-02-16T09:25:35;9.13;;;5.80;;
49730;SDS011;35622;52.008;5.426;2024-02-16T09:28:00;11.15;;;5.65;;
49730;SDS011;35622;52.008;5.426;2024-02-16T09:30:26;11.45;;;6.13;;
49730;SDS011;35622;52.008;5.426;2024-02-16T09:32:53;8.55;;;6.50;;
49730;SDS011;35622;52.008;5.426;2024-02-16T09:35:18;9.60;;;6.45;;
49730;SDS011;35622;52.008;5.426;2024-02-16T09:37:44;11.07;;;6.45;;
49730;SDS011;35622;52.008;5.426;2024-02-16T09:40:11;9.27;;;6.78;;
49730;SDS011;35622;52.008;5.426;2024-02-16T09:42:38;9.88;;;6.85;;
49730;SDS011;35622;52.008;5.426;2024-02-16T09:45:05;13.30;;;6.75;;
49730;SDS011;35622;52.008;5.426;2024-02-16T09:47:32;11.48;;;7.10;;
49730;SDS011;35622;52.008;5.426;2024-02-16T09:50:00;13.70;;;8.45;;
49730;SDS011;35622;52.008;5.426;2024-02-16T09:52:26;12.77;;;8.77;;
49730;SDS011;35622;52.008;5.426;2024-02-16T09:54:52;14.63;;;8.18;;
49730;SDS011;35622;52.008;5.426;2024-02-16T09:57:17;11.05;;;7.20;;
49730;SDS011;35622;52.008;5.426;2024-02-16T09:59:44;10.13;;;6.88;;
49730;SDS011;35622;52.008;5.426;2024-02-16T10:02:09;8.95;;;6.47;;
49730;SDS011;35622;52.008;5.426;2024-02-16T10:04:35;9.88;;;6.68;;
49730;SDS011;35622;52.008;5.426;2024-02-16T10:07:01;10.63;;;6.95;;
49730;SDS011;35622;52.008;5.426;2024-02-16T10:09:28;10.40;;;6.10;;
49730;SDS011;35622;52.008;5.426;2024-02-16T10:12:03;9.93;;;6.35;;
49730;SDS011;35622;52.008;5.426;2024-02-16T10:14:30;10.95;;;6.43;;
49730;SDS011;35622;52.008;5.426;2024-02-16T10:17:04;10.23;;;6.05;;
49730;SDS011;35622;52.008;5.426;2024-02-16T10:19:31;11.18;;;6.88;;
49730;SDS011;35622;52.008;5.426;2024-02-16T10:22:11;11.43;;;7.63;;
49730;SDS011;35622;52.008;5.426;2024-02-16T10:24:37;11.57;;;6.65;;
49730;SDS011;35622;52.008;5.426;2024-02-16T10:27:16;10.82;;;6.85;;
49730;SDS011;35622;52.008;5.426;2024-02-16T10:29:46;9.20;;;6.75;;
49730;SDS011;35622;52.008;5.426;2024-02-16T10:32:14;11.43;;;7.22;;
49730;SDS011;35622;52.008;5.426;2024-02-16T10:34:40;13.88;;;7.72;;
49730;SDS011;35622;52.008;5.426;2024-02-16T10:37:06;10.63;;;7.85;;
49730;SDS011;35622;52.008;5.426;2024-02-16T10:39:34;13.45;;;8.57;;
49730;SDS011;35622;52.008;5.426;2024-02-16T10:42:00;12.98;;;8.30;;
49730;SDS011;35622;52.008;5.426;2024-02-16T10:44:27;11.60;;;7.82;;
49730;SDS011;35622;52.008;5.426;2024-02-16T10:46:54;13.18;;;8.65;;
49730;SDS011;35622;52.008;5.426;2024-02-16T10:49:24;13.13;;;8.38;;
49730;SDS011;35622;52.008;5.426;2024-02-16T10:51:51;14.93;;;8.70;;
49730;SDS011;35622;52.008;5.426;2024-02-16T10:54:22;13.35;;;8.55;;
49730;SDS011;35622;52.008;5.426;2024-02-16T10:56:53;13.00;;;9.15;;
49730;SDS011;35622;52.008;5.426;2024-02-16T10:59:19;14.90;;;9.73;;
49730;SDS011;35622;52.008;5.426;2024-02-16T11:01:45;12.98;;;9.50;;
49730;SDS011;35622;52.008;5.426;2024-02-16T11:04:12;11.80;;;9.57;;
49730;SDS011;35622;52.008;5.426;2024-02-16T11:06:48;18.05;;;10.55;;
49730;SDS011;35622;52.008;5.426;2024-02-16T11:09:23;17.05;;;11.00;;
49730;SDS011;35622;52.008;5.426;2024-02-16T11:11:53;16.48;;;11.43;;
49730;SDS011;35622;52.008;5.426;2024-02-16T11:14:38;16.38;;;11.45;;
49730;SDS011;35622;52.008;5.426;2024-02-16T11:17:11;13.60;;;10.93;;
49730;SDS011;35622;52.008;5.426;2024-02-16T11:19:45;15.35;;;12.18;;
49730;SDS011;35622;52.008;5.426;2024-02-16T11:22:14;16.20;;;11.52;;
49730;SDS011;35622;52.008;5.426;2024-02-16T11:24:43;17.15;;;11.63;;
49730;SDS011;35622;52.008;5.426;2024-02-16T11:27:10;14.77;;;12.43;;
49730;SDS011;35622;52.008;5.426;2024-02-16T11:29:37;18.67;;;12.60;;
49730;SDS011;35622;52.008;5.426;2024-02-16T11:32:04;18.15;;;13.30;;
49730;SDS011;35622;52.008;5.426;2024-02-16T11:34:31;15.85;;;12.82;;
49730;SDS011;35622;52.008;5.426;2024-02-16T11:36:59;16.92;;;13.43;;
49730;SDS011;35622;52.008;5.426;2024-02-16T11:39:26;18.05;;;13.60;;
49730;SDS011;35622;52.008;5.426;2024-02-16T11:41:59;18.80;;;14.00;;
49730;SDS011;35622;52.008;5.426;2024-02-16T11:44:33;20.58;;;14.82;;
49730;SDS011;35622;52.008;5.426;2024-02-16T11:47:00;18.38;;;14.05;;
49730;SDS011;35622;52.008;5.426;2024-02-16T11:49:30;20.67;;;14.75;;
49730;SDS011;35622;52.008;5.426;2024-02-16T11:51:56;19.00;;;14.50;;
49730;SDS011;35622;52.008;5.426;2024-02-16T11:54:21;19.52;;;14.50;;
49730;SDS011;35622;52.008;5.426;2024-02-16T11:56:51;19.02;;;14.80;;
49730;SDS011;35622;52.008;5.426;2024-02-16T11:59:18;18.27;;;14.98;;
49730;SDS011;35622;52.008;5.426;2024-02-16T12:04:26;24.20;;;15.57;;
49730;SDS011;35622;52.008;5.426;2024-02-16T12:09:22;19.83;;;14.82;;
49730;SDS011;35622;52.008;5.426;2024-02-16T12:11:49;21.73;;;16.13;;
49730;SDS011;35622;52.008;5.426;2024-02-16T12:14:21;19.65;;;14.65;;
49730;SDS011;35622;52.008;5.426;2024-02-16T12:16:48;19.10;;;14.15;;
49730;SDS011;35622;52.008;5.426;2024-02-16T12:19:14;20.35;;;14.88;;
49730;SDS011;35622;52.008;5.426;2024-02-16T12:21:41;21.38;;;15.18;;
49730;SDS011;35622;52.008;5.426;2024-02-16T12:24:06;21.50;;;15.00;;
49730;SDS011;35622;52.008;5.426;2024-02-16T12:26:32;23.55;;;16.38;;
49730;SDS011;35622;52.008;5.426;2024-02-16T12:28:58;22.58;;;16.27;;
49730;SDS011;35622;52.008;5.426;2024-02-16T12:31:23;22.88;;;15.55;;
49730;SDS011;35622;52.008;5.426;2024-02-16T12:33:51;21.73;;;15.88;;
49730;SDS011;35622;52.008;5.426;2024-02-16T12:36:17;24.52;;;16.13;;
49730;SDS011;35622;52.008;5.426;2024-02-16T12:38:43;20.80;;;16.55;;
49730;SDS011;35622;52.008;5.426;2024-02-16T12:41:09;21.70;;;16.33;;
49730;SDS011;35622;52.008;5.426;2024-02-16T12:43:35;20.83;;;16.42;;
49730;SDS011;35622;52.008;5.426;2024-02-16T12:46:00;18.67;;;14.68;;
49730;SDS011;35622;52.008;5.426;2024-02-16T12:48:28;19.77;;;14.82;;
49730;SDS011;35622;52.008;5.426;2024-02-16T12:50:54;20.42;;;14.50;;
49730;SDS011;35622;52.008;5.426;2024-02-16T12:53:20;17.55;;;13.10;;
49730;SDS011;35622;52.008;5.426;2024-02-16T12:55:49;17.23;;;12.40;;
49730;SDS011;35622;52.008;5.426;2024-02-16T12:58:15;15.48;;;11.15;;
49730;SDS011;35622;52.008;5.426;2024-02-16T13:00:41;14.05;;;10.63;;
49730;SDS011;35622;52.008;5.426;2024-02-16T13:03:06;16.23;;;10.73;;
49730;SDS011;35622;52.008;5.426;2024-02-16T13:05:33;14.25;;;9.65;;
49730;SDS011;35622;52.008;5.426;2024-02-16T13:07:58;12.45;;;9.02;;
49730;SDS011;35622;52.008;5.426;2024-02-16T13:10:24;12.70;;;8.52;;
49730;SDS011;35622;52.008;5.426;2024-02-16T13:12:50;10.90;;;8.25;;
49730;SDS011;35622;52.008;5.426;2024-02-16T13:15:15;10.85;;;7.47;;
49730;SDS011;35622;52.008;5.426;2024-02-16T13:17:41;9.73;;;7.45;;
49730;SDS011;35622;52.008;5.426;2024-02-16T13:20:07;11.13;;;6.93;;
49730;SDS011;35622;52.008;5.426;2024-02-16T13:22:37;10.32;;;6.88;;
49730;SDS011;35622;52.008;5.426;2024-02-16T13:25:04;7.38;;;5.75;;
49730;SDS011;35622;52.008;5.426;2024-02-16T13:27:33;7.63;;;5.82;;
49730;SDS011;35622;52.008;5.426;2024-02-16T13:29:59;6.65;;;5.05;;
49730;SDS011;35622;52.008;5.426;2024-02-16T13:32:25;5.70;;;4.95;;
49730;SDS011;35622;52.008;5.426;2024-02-16T13:34:51;6.40;;;4.75;;
49730;SDS011;35622;52.008;5.426;2024-02-16T13:37:16;6.45;;;4.47;;
49730;SDS011;35622;52.008;5.426;2024-02-16T13:39:42;7.75;;;4.18;;
49730;SDS011;35622;52.008;5.426;2024-02-16T13:42:08;6.15;;;4.20;;
49730;SDS011;35622;52.008;5.426;2024-02-16T13:44:33;5.13;;;3.55;;
49730;SDS011;35622;52.008;5.426;2024-02-16T13:47:00;5.03;;;3.30;;
49730;SDS011;35622;52.008;5.426;2024-02-16T13:49:25;4.72;;;3.78;;
49730;SDS011;35622;52.008;5.426;2024-02-16T13:51:51;4.72;;;3.70;;
49730;SDS011;35622;52.008;5.426;2024-02-16T13:54:17;5.35;;;4.13;;
49730;SDS011;35622;52.008;5.426;2024-02-16T13:56:42;4.82;;;3.42;;
49730;SDS011;35622;52.008;5.426;2024-02-16T13:59:08;3.90;;;3.38;;
49730;SDS011;35622;52.008;5.426;2024-02-16T14:01:34;6.47;;;3.65;;
49730;SDS011;35622;52.008;5.426;2024-02-16T14:04:01;5.10;;;3.70;;
49730;SDS011;35622;52.008;5.426;2024-02-16T14:06:28;4.35;;;3.42;;
49730;SDS011;35622;52.008;5.426;2024-02-16T14:08:53;3.92;;;2.97;;
49730;SDS011;35622;52.008;5.426;2024-02-16T14:11:21;4.80;;;3.42;;
49730;SDS011;35622;52.008;5.426;2024-02-16T14:13:47;6.10;;;3.25;;
49730;SDS011;35622;52.008;5.426;2024-02-16T14:16:13;5.32;;;3.30;;
49730;SDS011;35622;52.008;5.426;2024-02-16T14:18:39;5.93;;;3.30;;
49730;SDS011;35622;52.008;5.426;2024-02-16T14:21:05;4.28;;;3.28;;
49730;SDS011;35622;52.008;5.426;2024-02-16T14:23:31;6.75;;;3.53;;
49730;SDS011;35622;52.008;5.426;2024-02-16T14:25:57;6.10;;;3.72;;
49730;SDS011;35622;52.008;5.426;2024-02-16T14:28:23;5.07;;;3.22;;
49730;SDS011;35622;52.008;5.426;2024-02-16T14:30:48;6.50;;;3.33;;
49730;SDS011;35622;52.008;5.426;2024-02-16T14:33:14;6.63;;;3.80;;
49730;SDS011;35622;52.008;5.426;2024-02-16T14:35:42;5.93;;;3.70;;
49730;SDS011;35622;52.008;5.426;2024-02-16T14:38:11;6.82;;;4.25;;
49730;SDS011;35622;52.008;5.426;2024-02-16T14:40:37;6.35;;;3.72;;
49730;SDS011;35622;52.008;5.426;2024-02-16T14:43:03;6.57;;;4.57;;